sensor_id;sensor_type;location;lat;lon;timestamp;pressure;altitude;pressure_sealevel;temperature;humidity
73633;BME280;61927;50.080;14.418;2023-11-19T00:00:16;99759.69;;;4.71;76.96
73633;BME280;61927;50.080;14.418;2023-11-19T00:03:01;99738.81;;;4.66;76.50
73633;BME280;61927;50.080;14.418;2023-11-19T00:05:27;99733.44;;;4.69;77.30
73633;BME280;61927;50.080;14.418;2023-11-19T00:07:53;99718.19;;;4.54;77.09
73633;BME280;61927;50.080;14.418;2023-11-19T00:10:19;99722.81;;;4.46;77.63
73633;BME280;61927;50.080;14.418;2023-11-19T00:12:47;99716.09;;;4.37;78.76
73633;BME280;61927;50.080;14.418;2023-11-19T00:15:13;99697.97;;;4.30;77.81
73633;BME280;61927;50.080;14.418;2023-11-19T00:17:44;99695.38;;;4.28;78.12
73633;BME280;61927;50.080;14.418;2023-11-19T00:20:14;99691.13;;;4.24;77.81
73633;BME280;61927;50.080;14.418;2023-11-19T00:22:41;99692.97;;;4.22;78.57
73633;BME280;61927;50.080;14.418;2023-11-19T00:25:08;99693.00;;;4.20;78.80
73633;BME280;61927;50.080;14.418;2023-11-19T00:27:35;99679.91;;;4.19;79.19
73633;BME280;61927;50.080;14.418;2023-11-19T00:30:01;99673.72;;;4.21;79.11
73633;BME280;61927;50.080;14.418;2023-11-19T00:32:26;99671.94;;;4.22;79.59
73633;BME280;61927;50.080;14.418;2023-11-19T00:34:52;99660.31;;;4.29;78.88
73633;BME280;61927;50.080;14.418;2023-11-19T00:37:17;99662.00;;;4.32;78.82
73633;BME280;61927;50.080;14.418;2023-11-19T00:39:43;99663.97;;;4.25;79.09
73633;BME280;61927;50.080;14.418;2023-11-19T00:42:09;99659.53;;;4.27;78.76
73633;BME280;61927;50.080;14.418;2023-11-19T00:44:36;99660.44;;;4.26;79.66
73633;BME280;61927;50.080;14.418;2023-11-19T00:47:01;99646.88;;;4.38;79.45
73633;BME280;61927;50.080;14.418;2023-11-19T00:49:27;99634.81;;;4.33;78.63
73633;BME280;61927;50.080;14.418;2023-11-19T00:51:52;99630.53;;;4.30;78.97
73633;BME280;61927;50.080;14.418;2023-11-19T00:54:18;99624.22;;;4.36;78.60
73633;BME280;61927;50.080;14.418;2023-11-19T00:56:43;99622.69;;;4.29;78.70
73633;BME280;61927;50.080;14.418;2023-11-19T00:59:10;99621.88;;;4.27;79.65
73633;BME280;61927;50.080;14.418;2023-11-19T01:01:36;99623.41;;;4.34;79.23
73633;BME280;61927;50.080;14.418;2023-11-19T01:04:02;99629.66;;;4.30;79.19
73633;BME280;61927;50.080;14.418;2023-11-19T01:06:31;99627.00;;;4.31;78.99
73633;BME280;61927;50.080;14.418;2023-11-19T01:08:57;99631.59;;;4.25;79.00
73633;BME280;61927;50.080;14.418;2023-11-19T01:11:24;99617.44;;;4.29;79.09
73633;BME280;61927;50.080;14.418;2023-11-19T01:13:50;99614.75;;;4.30;78.63
73633;BME280;61927;50.080;14.418;2023-11-19T01:16:16;99600.78;;;4.30;79.29
73633;BME280;61927;50.080;14.418;2023-11-19T01:18:42;99602.34;;;4.35;79.25
73633;BME280;61927;50.080;14.418;2023-11-19T01:21:08;99597.50;;;4.23;78.54
73633;BME280;61927;50.080;14.418;2023-11-19T01:23:34;99597.50;;;4.23;79.44
73633;BME280;61927;50.080;14.418;2023-11-19T01:26:00;99591.47;;;4.19;79.18
73633;BME280;61927;50.080;14.418;2023-11-19T01:28:26;99587.84;;;4.24;79.09
73633;BME280;61927;50.080;14.418;2023-11-19T01:30:51;99576.66;;;3.92;79.42
73633;BME280;61927;50.080;14.418;2023-11-19T01:33:17;99568.97;;;4.12;79.88
73633;BME280;61927;50.080;14.418;2023-11-19T01:35:43;99561.56;;;4.24;79.78
73633;BME280;61927;50.080;14.418;2023-11-19T01:38:09;99544.91;;;4.25;79.58
73633;BME280;61927;50.080;14.418;2023-11-19T01:40:35;99542.22;;;4.26;79.25
73633;BME280;61927;50.080;14.418;2023-11-19T01:43:02;99545.03;;;4.21;79.44
73633;BME280;61927;50.080;14.418;2023-11-19T01:45:30;99532.84;;;4.19;79.33
73633;BME280;61927;50.080;14.418;2023-11-19T01:48:02;99531.84;;;4.23;79.44
73633;BME280;61927;50.080;14.418;2023-11-19T01:50:31;99521.97;;;4.05;80.82
73633;BME280;61927;50.080;14.418;2023-11-19T01:52:58;99507.66;;;4.13;80.74
73633;BME280;61927;50.080;14.418;2023-11-19T01:55:25;99503.91;;;4.20;80.15
73633;BME280;61927;50.080;14.418;2023-11-19T01:57:55;99512.53;;;4.24;80.18
73633;BME280;61927;50.080;14.418;2023-11-19T02:00:24;99516.81;;;4.27;80.32
73633;BME280;61927;50.080;14.418;2023-11-19T02:02:52;99529.00;;;4.29;80.90
73633;BME280;61927;50.080;14.418;2023-11-19T02:05:17;99529.41;;;4.42;80.94
73633;BME280;61927;50.080;14.418;2023-11-19T02:07:43;99521.97;;;4.30;80.63
73633;BME280;61927;50.080;14.418;2023-11-19T02:10:11;99507.81;;;4.34;80.19
73633;BME280;61927;50.080;14.418;2023-11-19T02:12:40;99502.63;;;4.32;80.00
73633;BME280;61927;50.080;14.418;2023-11-19T02:15:09;99489.16;;;4.41;79.70
73633;BME280;61927;50.080;14.418;2023-11-19T02:17:35;99484.91;;;4.37;80.76
73633;BME280;61927;50.080;14.418;2023-11-19T02:20:06;99470.00;;;4.38;80.50
73633;BME280;61927;50.080;14.418;2023-11-19T02:22:35;99455.59;;;4.25;80.16
73633;BME280;61927;50.080;14.418;2023-11-19T02:25:04;99457.28;;;4.27;80.96
73633;BME280;61927;50.080;14.418;2023-11-19T02:27:44;99453.94;;;4.22;81.23
73633;BME280;61927;50.080;14.418;2023-11-19T02:30:11;99455.66;;;4.23;81.19
73633;BME280;61927;50.080;14.418;2023-11-19T02:32:37;99458.34;;;4.21;81.25
73633;BME280;61927;50.080;14.418;2023-11-19T02:35:06;99458.19;;;4.26;81.52
73633;BME280;61927;50.080;14.418;2023-11-19T02:37:34;99449.16;;;4.33;80.74
73633;BME280;61927;50.080;14.418;2023-11-19T02:39:59;99448.59;;;4.25;80.37
73633;BME280;61927;50.080;14.418;2023-11-19T02:42:28;99444.81;;;4.32;81.07
73633;BME280;61927;50.080;14.418;2023-11-19T02:44:54;99446.53;;;4.33;81.05
73633;BME280;61927;50.080;14.418;2023-11-19T02:47:19;99444.81;;;4.32;80.69
73633;BME280;61927;50.080;14.418;2023-11-19T02:49:47;99443.13;;;4.31;81.01
73633;BME280;61927;50.080;14.418;2023-11-19T02:52:13;99425.41;;;4.36;80.88
73633;BME280;61927;50.080;14.418;2023-11-19T02:54:40;99422.31;;;4.25;80.54
73633;BME280;61927;50.080;14.418;2023-11-19T02:57:07;99424.56;;;4.36;81.32
73633;BME280;61927;50.080;14.418;2023-11-19T02:59:37;99418.38;;;4.37;81.46
73633;BME280;61927;50.080;14.418;2023-11-19T03:02:07;99403.47;;;4.37;81.11
73633;BME280;61927;50.080;14.418;2023-11-19T03:04:37;99414.78;;;4.39;81.01
73633;BME280;61927;50.080;14.418;2023-11-19T03:07:05;99409.94;;;4.29;80.56
73633;BME280;61927;50.080;14.418;2023-11-19T03:09:32;99407.03;;;4.36;80.25
73633;BME280;61927;50.080;14.418;2023-11-19T03:11:59;99391.44;;;4.32;80.64
73633;BME280;61927;50.080;14.418;2023-11-19T03:14:24;99381.78;;;4.32;80.59
73633;BME280;61927;50.080;14.418;2023-11-19T03:16:50;99364.38;;;4.30;81.26
73633;BME280;61927;50.080;14.418;2023-11-19T03:19:16;99361.28;;;4.18;82.62
73633;BME280;61927;50.080;14.418;2023-11-19T03:21:42;99363.41;;;4.32;81.11
73633;BME280;61927;50.080;14.418;2023-11-19T03:24:07;99355.88;;;4.23;81.14
73633;BME280;61927;50.080;14.418;2023-11-19T03:26:34;99348.44;;;4.34;80.98
73633;BME280;61927;50.080;14.418;2023-11-19T03:28:59;99345.69;;;4.37;82.42
73633;BME280;61927;50.080;14.418;2023-11-19T03:31:25;99342.16;;;4.38;81.90
73633;BME280;61927;50.080;14.418;2023-11-19T03:33:51;99339.59;;;4.37;82.14
73633;BME280;61927;50.080;14.418;2023-11-19T03:36:16;99343.47;;;4.27;81.98
73633;BME280;61927;50.080;14.418;2023-11-19T03:38:43;99332.72;;;4.33;81.83
73633;BME280;61927;50.080;14.418;2023-11-19T03:41:12;99326.63;;;4.32;82.20
73633;BME280;61927;50.080;14.418;2023-11-19T03:43:38;99319.84;;;4.27;82.18
73633;BME280;61927;50.080;14.418;2023-11-19T03:46:05;99304.81;;;4.30;81.90
73633;BME280;61927;50.080;14.418;2023-11-19T03:48:31;99317.16;;;4.28;82.08
73633;BME280;61927;50.080;14.418;2023-11-19T03:50:56;99320.47;;;4.33;82.55
73633;BME280;61927;50.080;14.418;2023-11-19T03:53:22;99305.97;;;4.23;82.24
73633;BME280;61927;50.080;14.418;2023-11-19T03:55:49;99305.78;;;4.28;82.60
73633;BME280;61927;50.080;14.418;2023-11-19T03:58:15;99306.72;;;4.48;82.57
73633;BME280;61927;50.080;14.418;2023-11-19T04:00:41;99306.84;;;4.45;83.34
73633;BME280;61927;50.080;14.418;2023-11-19T04:03:06;99303.19;;;4.49;82.43
73633;BME280;61927;50.080;14.418;2023-11-19T04:05:32;99296.50;;;4.41;81.92
73633;BME280;61927;50.080;14.418;2023-11-19T04:07:57;99299.81;;;4.46;83.15
73633;BME280;61927;50.080;14.418;2023-11-19T04:10:23;99288.81;;;4.36;82.32
73633;BME280;61927;50.080;14.418;2023-11-19T04:12:48;99283.81;;;4.30;83.12
73633;BME280;61927;50.080;14.418;2023-11-19T04:15:14;99278.44;;;4.33;83.55
73633;BME280;61927;50.080;14.418;2023-11-19T04:17:40;99274.03;;;4.34;83.29
73633;BME280;61927;50.080;14.418;2023-11-19T04:20:06;99264.94;;;4.42;83.05
73633;BME280;61927;50.080;14.418;2023-11-19T04:22:35;99261.31;;;4.45;83.46
73633;BME280;61927;50.080;14.418;2023-11-19T04:25:01;99263.88;;;4.46;83.15
73633;BME280;61927;50.080;14.418;2023-11-19T04:27:27;99255.69;;;4.54;83.30
73633;BME280;61927;50.080;14.418;2023-11-19T04:29:52;99250.63;;;4.49;82.87
73633;BME280;61927;50.080;14.418;2023-11-19T04:32:18;99242.75;;;4.49;83.23
73633;BME280;61927;50.080;14.418;2023-11-19T04:34:43;99233.03;;;4.51;81.96
73633;BME280;61927;50.080;14.418;2023-11-19T04:37:09;99245.38;;;4.49;82.55
73633;BME280;61927;50.080;14.418;2023-11-19T04:39:35;99237.06;;;4.38;82.71
73633;BME280;61927;50.080;14.418;2023-11-19T04:42:00;99226.31;;;4.44;83.07
73633;BME280;61927;50.080;14.418;2023-11-19T04:44:26;99220.03;;;4.48;82.64
73633;BME280;61927;50.080;14.418;2023-11-19T04:46:51;99218.25;;;4.49;83.74
73633;BME280;61927;50.080;14.418;2023-11-19T04:49:17;99212.81;;;4.53;83.56
73633;BME280;61927;50.080;14.418;2023-11-19T04:51:45;99210.84;;;4.59;83.21
73633;BME280;61927;50.080;14.418;2023-11-19T04:54:12;99191.84;;;4.52;83.50
73633;BME280;61927;50.080;14.418;2023-11-19T04:56:38;99178.66;;;4.53;83.48
73633;BME280;61927;50.080;14.418;2023-11-19T04:59:05;99164.47;;;4.58;83.79
73633;BME280;61927;50.080;14.418;2023-11-19T05:01:34;99162.59;;;4.39;83.91
73633;BME280;61927;50.080;14.418;2023-11-19T05:04:01;99164.91;;;4.47;84.90
73633;BME280;61927;50.080;14.418;2023-11-19T05:06:28;99161.69;;;4.40;84.19
73633;BME280;61927;50.080;14.418;2023-11-19T05:08:55;99156.44;;;4.40;84.94
73633;BME280;61927;50.080;14.418;2023-11-19T05:11:21;99144.28;;;4.38;84.21
73633;BME280;61927;50.080;14.418;2023-11-19T05:13:47;99147.88;;;4.35;84.88
73633;BME280;61927;50.080;14.418;2023-11-19T05:16:12;99140.47;;;4.45;85.32
73633;BME280;61927;50.080;14.418;2023-11-19T05:18:41;99147.75;;;4.38;85.23
73633;BME280;61927;50.080;14.418;2023-11-19T05:21:07;99145.38;;;4.32;85.51
73633;BME280;61927;50.080;14.418;2023-11-19T05:23:33;99151.44;;;4.34;85.26
73633;BME280;61927;50.080;14.418;2023-11-19T05:26:00;99160.75;;;4.41;84.88
73633;BME280;61927;50.080;14.418;2023-11-19T05:28:26;99148.06;;;4.31;84.12
73633;BME280;61927;50.080;14.418;2023-11-19T05:30:52;99140.13;;;4.32;85.37
73633;BME280;61927;50.080;14.418;2023-11-19T05:33:17;99129.25;;;4.41;86.17
73633;BME280;61927;50.080;14.418;2023-11-19T05:35:43;99124.72;;;4.45;84.25
73633;BME280;61927;50.080;14.418;2023-11-19T05:38:08;99119.97;;;4.33;85.27
73633;BME280;61927;50.080;14.418;2023-11-19T05:40:35;99109.53;;;4.31;84.88
73633;BME280;61927;50.080;14.418;2023-11-19T05:43:01;99111.84;;;4.39;85.32
73633;BME280;61927;50.080;14.418;2023-11-19T05:45:26;99106.00;;;4.32;84.08
73633;BME280;61927;50.080;14.418;2023-11-19T05:47:52;99098.75;;;4.37;84.93
73633;BME280;61927;50.080;14.418;2023-11-19T05:50:18;99093.56;;;4.36;85.27
73633;BME280;61927;50.080;14.418;2023-11-19T05:52:44;99092.41;;;4.43;85.16
73633;BME280;61927;50.080;14.418;2023-11-19T05:55:09;99110.91;;;4.40;86.38
73633;BME280;61927;50.080;14.418;2023-11-19T05:57:37;99098.38;;;4.26;87.03
73633;BME280;61927;50.080;14.418;2023-11-19T06:00:03;99084.25;;;4.29;87.21
73633;BME280;61927;50.080;14.418;2023-11-19T06:02:34;99088.59;;;4.30;86.34
73633;BME280;61927;50.080;14.418;2023-11-19T06:05:00;99082.09;;;4.38;86.67
73633;BME280;61927;50.080;14.418;2023-11-19T06:07:27;99084.66;;;4.40;86.98
73633;BME280;61927;50.080;14.418;2023-11-19T06:09:53;99073.22;;;4.41;86.22
73633;BME280;61927;50.080;14.418;2023-11-19T06:12:19;99066.31;;;4.38;86.16
73633;BME280;61927;50.080;14.418;2023-11-19T06:14:44;99074.06;;;4.41;85.80
73633;BME280;61927;50.080;14.418;2023-11-19T06:17:10;99067.84;;;4.44;85.92
73633;BME280;61927;50.080;14.418;2023-11-19T06:19:37;99082.34;;;4.52;85.69
73633;BME280;61927;50.080;14.418;2023-11-19T06:22:03;99092.19;;;4.47;85.97
73633;BME280;61927;50.080;14.418;2023-11-19T06:24:29;99081.09;;;4.61;85.04
73633;BME280;61927;50.080;14.418;2023-11-19T06:26:55;99073.34;;;4.58;84.93
73633;BME280;61927;50.080;14.418;2023-11-19T06:29:21;99072.44;;;4.59;86.26
73633;BME280;61927;50.080;14.418;2023-11-19T06:31:46;99065.41;;;4.60;85.89
73633;BME280;61927;50.080;14.418;2023-11-19T06:34:15;99062.44;;;4.67;85.23
73633;BME280;61927;50.080;14.418;2023-11-19T06:36:41;99074.84;;;4.64;85.86
73633;BME280;61927;50.080;14.418;2023-11-19T06:39:08;99074.94;;;4.62;86.06
73633;BME280;61927;50.080;14.418;2023-11-19T06:41:34;99061.66;;;4.65;86.46
73633;BME280;61927;50.080;14.418;2023-11-19T06:44:00;99058.94;;;4.67;86.10
73633;BME280;61927;50.080;14.418;2023-11-19T06:46:25;99057.91;;;4.71;85.61
73633;BME280;61927;50.080;14.418;2023-11-19T06:48:51;99075.16;;;4.76;85.54
73633;BME280;61927;50.080;14.418;2023-11-19T06:51:16;99073.25;;;4.80;85.55
73633;BME280;61927;50.080;14.418;2023-11-19T06:53:42;99064.44;;;4.81;86.01
73633;BME280;61927;50.080;14.418;2023-11-19T06:56:22;99055.28;;;4.71;86.35
73633;BME280;61927;50.080;14.418;2023-11-19T06:58:48;99056.97;;;4.72;86.89
73633;BME280;61927;50.080;14.418;2023-11-19T07:01:15;99067.06;;;4.81;86.09
73633;BME280;61927;50.080;14.418;2023-11-19T07:03:41;99052.28;;;4.78;85.86
73633;BME280;61927;50.080;14.418;2023-11-19T07:06:07;99057.41;;;4.81;86.63
73633;BME280;61927;50.080;14.418;2023-11-19T07:08:32;99057.31;;;4.64;85.84
73633;BME280;61927;50.080;14.418;2023-11-19T07:10:58;99061.19;;;4.76;86.03
73633;BME280;61927;50.080;14.418;2023-11-19T07:13:23;99055.13;;;4.74;86.89
73633;BME280;61927;50.080;14.418;2023-11-19T07:15:49;99052.88;;;4.85;87.22
73633;BME280;61927;50.080;14.418;2023-11-19T07:18:14;99056.72;;;4.97;86.06
73633;BME280;61927;50.080;14.418;2023-11-19T07:20:40;99060.72;;;5.05;85.88
73633;BME280;61927;50.080;14.418;2023-11-19T07:23:06;99062.84;;;4.97;84.75
73633;BME280;61927;50.080;14.418;2023-11-19T07:25:31;99053.09;;;4.99;85.76
73633;BME280;61927;50.080;14.418;2023-11-19T07:27:57;99048.56;;;5.03;85.44
73633;BME280;61927;50.080;14.418;2023-11-19T07:30:23;99051.75;;;5.09;85.63
73633;BME280;61927;50.080;14.418;2023-11-19T07:32:48;99051.63;;;5.12;85.76
73633;BME280;61927;50.080;14.418;2023-11-19T07:35:14;99048.78;;;5.17;84.96
73633;BME280;61927;50.080;14.418;2023-11-19T07:37:41;99045.59;;;5.10;85.32
73633;BME280;61927;50.080;14.418;2023-11-19T07:40:08;99042.09;;;5.10;85.54
73633;BME280;61927;50.080;14.418;2023-11-19T07:42:33;99044.44;;;5.16;86.22
73633;BME280;61927;50.080;14.418;2023-11-19T07:44:59;99043.66;;;5.14;85.51
73633;BME280;61927;50.080;14.418;2023-11-19T07:47:25;99041.38;;;5.06;85.49
73633;BME280;61927;50.080;14.418;2023-11-19T07:49:50;99050.84;;;5.10;85.97
73633;BME280;61927;50.080;14.418;2023-11-19T07:52:16;99047.06;;;5.16;85.85
73633;BME280;61927;50.080;14.418;2023-11-19T07:54:42;99048.50;;;5.23;86.35
73633;BME280;61927;50.080;14.418;2023-11-19T07:57:07;99038.97;;;5.21;85.60
73633;BME280;61927;50.080;14.418;2023-11-19T07:59:33;99035.56;;;5.18;86.36
73633;BME280;61927;50.080;14.418;2023-11-19T08:01:58;99031.94;;;5.21;85.89
73633;BME280;61927;50.080;14.418;2023-11-19T08:04:24;99035.34;;;5.23;86.01
73633;BME280;61927;50.080;14.418;2023-11-19T08:06:50;99051.56;;;5.33;86.11
73633;BME280;61927;50.080;14.418;2023-11-19T08:09:16;99039.97;;;5.37;86.41
73633;BME280;61927;50.080;14.418;2023-11-19T08:11:42;99037.31;;;5.37;85.57
73633;BME280;61927;50.080;14.418;2023-11-19T08:14:09;99037.47;;;5.34;86.14
73633;BME280;61927;50.080;14.418;2023-11-19T08:16:34;99036.41;;;5.38;85.76
73633;BME280;61927;50.080;14.418;2023-11-19T08:19:00;99034.25;;;5.46;85.96
73633;BME280;61927;50.080;14.418;2023-11-19T08:21:25;99031.56;;;5.47;86.23
73633;BME280;61927;50.080;14.418;2023-11-19T08:23:52;99026.16;;;5.50;85.21
73633;BME280;61927;50.080;14.418;2023-11-19T08:26:17;99017.94;;;5.57;84.39
73633;BME280;61927;50.080;14.418;2023-11-19T08:28:43;99013.47;;;5.59;84.98
73633;BME280;61927;50.080;14.418;2023-11-19T08:31:09;99004.50;;;5.63;85.32
73633;BME280;61927;50.080;14.418;2023-11-19T08:33:34;99005.41;;;5.62;85.36
73633;BME280;61927;50.080;14.418;2023-11-19T08:36:01;98998.78;;;5.72;84.71
73633;BME280;61927;50.080;14.418;2023-11-19T08:38:27;99003.72;;;5.61;86.43
73633;BME280;61927;50.080;14.418;2023-11-19T08:40:52;99005.59;;;5.76;85.70
73633;BME280;61927;50.080;14.418;2023-11-19T08:43:18;99011.25;;;5.68;86.14
73633;BME280;61927;50.080;14.418;2023-11-19T08:45:44;99008.56;;;5.51;87.38
73633;BME280;61927;50.080;14.418;2023-11-19T08:48:10;99013.00;;;5.50;88.50
73633;BME280;61927;50.080;14.418;2023-11-19T08:50:35;99017.75;;;5.42;89.08
73633;BME280;61927;50.080;14.418;2023-11-19T08:53:01;99012.66;;;5.39;89.11
73633;BME280;61927;50.080;14.418;2023-11-19T08:55:26;99018.03;;;5.55;86.67
73633;BME280;61927;50.080;14.418;2023-11-19T08:57:52;99016.50;;;5.68;87.29
73633;BME280;61927;50.080;14.418;2023-11-19T09:00:18;99016.69;;;5.82;86.60
73633;BME280;61927;50.080;14.418;2023-11-19T09:02:43;99020.06;;;5.67;87.34
73633;BME280;61927;50.080;14.418;2023-11-19T09:05:09;99017.06;;;5.75;86.72
73633;BME280;61927;50.080;14.418;2023-11-19T09:07:35;99009.72;;;5.81;86.53
73633;BME280;61927;50.080;14.418;2023-11-19T09:10:00;99010.69;;;5.98;86.24
73633;BME280;61927;50.080;14.418;2023-11-19T09:12:26;99016.09;;;6.12;85.82
73633;BME280;61927;50.080;14.418;2023-11-19T09:14:52;99015.03;;;6.16;85.28
73633;BME280;61927;50.080;14.418;2023-11-19T09:17:18;99007.75;;;6.21;85.03
73633;BME280;61927;50.080;14.418;2023-11-19T09:19:44;99003.78;;;6.12;86.08
73633;BME280;61927;50.080;14.418;2023-11-19T09:22:09;98994.63;;;6.37;85.53
73633;BME280;61927;50.080;14.418;2023-11-19T09:24:35;99001.72;;;6.52;84.89
73633;BME280;61927;50.080;14.418;2023-11-19T09:27:00;98999.00;;;6.54;84.95
73633;BME280;61927;50.080;14.418;2023-11-19T09:29:26;98973.44;;;6.56;84.77
73633;BME280;61927;50.080;14.418;2023-11-19T09:31:51;98971.00;;;6.68;84.70
73633;BME280;61927;50.080;14.418;2023-11-19T09:34:17;98996.59;;;6.66;85.84
73633;BME280;61927;50.080;14.418;2023-11-19T09:36:43;98988.63;;;6.51;86.79
73633;BME280;61927;50.080;14.418;2023-11-19T09:39:10;99003.16;;;6.75;86.07
73633;BME280;61927;50.080;14.418;2023-11-19T09:41:36;98998.66;;;6.77;85.73
73633;BME280;61927;50.080;14.418;2023-11-19T09:44:02;98998.97;;;6.71;85.79
73633;BME280;61927;50.080;14.418;2023-11-19T09:46:28;98997.00;;;6.59;86.40
73633;BME280;61927;50.080;14.418;2023-11-19T09:48:53;98996.75;;;6.63;86.95
73633;BME280;61927;50.080;14.418;2023-11-19T09:51:21;99000.84;;;6.69;87.00
73633;BME280;61927;50.080;14.418;2023-11-19T09:53:50;98988.34;;;6.72;87.20
73633;BME280;61927;50.080;14.418;2023-11-19T09:56:16;98980.88;;;6.80;87.45
73633;BME280;61927;50.080;14.418;2023-11-19T09:58:42;98977.25;;;6.99;87.13
73633;BME280;61927;50.080;14.418;2023-11-19T10:01:08;98967.53;;;6.84;87.92
73633;BME280;61927;50.080;14.418;2023-11-19T10:03:37;98964.47;;;6.91;88.50
73633;BME280;61927;50.080;14.418;2023-11-19T10:06:10;98968.81;;;7.08;88.01
73633;BME280;61927;50.080;14.418;2023-11-19T10:08:39;98958.44;;;7.05;88.29
73633;BME280;61927;50.080;14.418;2023-11-19T10:11:08;98957.06;;;7.13;88.48
73633;BME280;61927;50.080;14.418;2023-11-19T10:13:35;98950.59;;;7.19;88.86
73633;BME280;61927;50.080;14.418;2023-11-19T10:16:08;98960.28;;;7.34;88.52
73633;BME280;61927;50.080;14.418;2023-11-19T10:18:34;98952.84;;;7.57;88.57
73633;BME280;61927;50.080;14.418;2023-11-19T10:21:06;98949.91;;;7.77;87.63
73633;BME280;61927;50.080;14.418;2023-11-19T10:23:53;98939.88;;;7.98;87.17
73633;BME280;61927;50.080;14.418;2023-11-19T10:26:20;98930.84;;;8.16;86.44
73633;BME280;61927;50.080;14.418;2023-11-19T10:28:46;98931.47;;;8.35;86.33
73633;BME280;61927;50.080;14.418;2023-11-19T10:31:13;98932.69;;;8.58;86.24
73633;BME280;61927;50.080;14.418;2023-11-19T10:33:39;98936.75;;;8.78;85.92
73633;BME280;61927;50.080;14.418;2023-11-19T10:36:05;98922.75;;;8.90;85.63
73633;BME280;61927;50.080;14.418;2023-11-19T10:38:31;98912.78;;;9.08;85.24
73633;BME280;61927;50.080;14.418;2023-11-19T10:40:56;98913.78;;;9.20;85.34
73633;BME280;61927;50.080;14.418;2023-11-19T10:43:23;98902.59;;;9.29;84.74
73633;BME280;61927;50.080;14.418;2023-11-19T10:45:49;98902.84;;;9.38;84.51
73633;BME280;61927;50.080;14.418;2023-11-19T10:48:15;98903.41;;;9.44;84.01
73633;BME280;61927;50.080;14.418;2023-11-19T10:50:43;98917.63;;;9.55;84.31
73633;BME280;61927;50.080;14.418;2023-11-19T10:53:10;98912.34;;;9.55;83.68
73633;BME280;61927;50.080;14.418;2023-11-19T10:55:39;98910.03;;;9.63;83.40
73633;BME280;61927;50.080;14.418;2023-11-19T10:58:06;98911.41;;;9.69;83.44
73633;BME280;61927;50.080;14.418;2023-11-19T11:01:02;98900.00;;;9.81;82.42
73633;BME280;61927;50.080;14.418;2023-11-19T11:03:35;98897.56;;;9.91;82.45
73633;BME280;61927;50.080;14.418;2023-11-19T11:06:03;98899.59;;;10.00;81.59
73633;BME280;61927;50.080;14.418;2023-11-19T11:08:30;98892.38;;;10.02;81.15
73633;BME280;61927;50.080;14.418;2023-11-19T11:10:56;98893.88;;;9.93;81.34
73633;BME280;61927;50.080;14.418;2023-11-19T11:13:23;98891.66;;;10.00;81.23
73633;BME280;61927;50.080;14.418;2023-11-19T11:15:50;98882.75;;;10.01;80.64
73633;BME280;61927;50.080;14.418;2023-11-19T11:18:16;98878.59;;;9.97;80.96
73633;BME280;61927;50.080;14.418;2023-11-19T11:20:47;98877.13;;;9.93;81.91
73633;BME280;61927;50.080;14.418;2023-11-19T11:29:04;98876.38;;;9.91;81.44
73633;BME280;61927;50.080;14.418;2023-11-19T11:34:24;98879.13;;;9.89;81.71
73633;BME280;61927;50.080;14.418;2023-11-19T11:37:15;98893.97;;;9.92;81.07
73633;BME280;61927;50.080;14.418;2023-11-19T11:39:43;98881.88;;;9.88;81.30
73633;BME280;61927;50.080;14.418;2023-11-19T11:50:09;98884.97;;;10.07;80.64
73633;BME280;61927;50.080;14.418;2023-11-19T11:57:58;98881.41;;;10.21;79.68
73633;BME280;61927;50.080;14.418;2023-11-19T12:00:33;98878.19;;;10.16;79.91
73633;BME280;61927;50.080;14.418;2023-11-19T12:03:04;98876.31;;;10.30;79.26
73633;BME280;61927;50.080;14.418;2023-11-19T12:05:30;98884.25;;;10.30;79.38
73633;BME280;61927;50.080;14.418;2023-11-19T12:08:03;98870.03;;;10.31;79.49
73633;BME280;61927;50.080;14.418;2023-11-19T12:10:31;98871.84;;;10.31;79.53
73633;BME280;61927;50.080;14.418;2023-11-19T12:12:58;98874.81;;;10.39;78.72
73633;BME280;61927;50.080;14.418;2023-11-19T12:15:24;98875.66;;;10.40;79.27
73633;BME280;61927;50.080;14.418;2023-11-19T12:17:50;98866.41;;;10.45;79.30
73633;BME280;61927;50.080;14.418;2023-11-19T12:20:17;98876.50;;;10.53;79.46
73633;BME280;61927;50.080;14.418;2023-11-19T12:22:45;98873.94;;;10.64;78.28
73633;BME280;61927;50.080;14.418;2023-11-19T12:25:12;98868.28;;;10.68;77.90
73633;BME280;61927;50.080;14.418;2023-11-19T12:27:43;98862.66;;;10.73;77.89
73633;BME280;61927;50.080;14.418;2023-11-19T12:30:09;98867.31;;;10.82;77.81
73633;BME280;61927;50.080;14.418;2023-11-19T12:32:42;98853.59;;;10.88;77.34
73633;BME280;61927;50.080;14.418;2023-11-19T12:35:09;98860.38;;;10.92;77.37
73633;BME280;61927;50.080;14.418;2023-11-19T12:37:45;98846.69;;;10.86;77.79
73633;BME280;61927;50.080;14.418;2023-11-19T12:40:29;98839.50;;;10.75;78.29
73633;BME280;61927;50.080;14.418;2023-11-19T12:42:55;98846.53;;;10.63;78.50
73633;BME280;61927;50.080;14.418;2023-11-19T12:45:21;98838.19;;;10.57;79.30
73633;BME280;61927;50.080;14.418;2023-11-19T12:47:49;98836.16;;;10.60;79.28
73633;BME280;61927;50.080;14.418;2023-11-19T12:50:16;98816.63;;;10.61;79.33
73633;BME280;61927;50.080;14.418;2023-11-19T12:52:56;98820.00;;;10.63;79.23
73633;BME280;61927;50.080;14.418;2023-11-19T12:55:29;98833.19;;;10.52;79.84
73633;BME280;61927;50.080;14.418;2023-11-19T12:57:56;98832.47;;;10.50;79.48
73633;BME280;61927;50.080;14.418;2023-11-19T13:00:24;98841.50;;;10.48;80.22
73633;BME280;61927;50.080;14.418;2023-11-19T13:02:55;98844.56;;;10.42;80.17
73633;BME280;61927;50.080;14.418;2023-11-19T13:05:29;98830.03;;;10.47;80.42
73633;BME280;61927;50.080;14.418;2023-11-19T13:08:03;98822.03;;;10.60;79.50
73633;BME280;61927;50.080;14.418;2023-11-19T13:11:12;98815.56;;;10.64;79.48
73633;BME280;61927;50.080;14.418;2023-11-19T13:13:22;98811.50;;;10.71;78.50
73633;BME280;61927;50.080;14.418;2023-11-19T13:15:47;98812.25;;;10.73;78.89
73633;BME280;61927;50.080;14.418;2023-11-19T13:18:16;98811.16;;;10.76;78.57
73633;BME280;61927;50.080;14.418;2023-11-19T13:20:42;98805.75;;;10.77;78.60